sensor_id;sensor_type;location;lat;lon;timestamp;pressure;altitude;pressure_sealevel;temperature;humidity
45255;BME280;30989;52.078;21.014;2023-10-19T00:00:36;164007.53;;;0.99;100.00
45255;BME280;30989;52.078;21.014;2023-10-19T00:03:04;164006.22;;;0.98;100.00
45255;BME280;30989;52.078;21.014;2023-10-19T00:05:36;164002.22;;;0.96;100.00
45255;BME280;30989;52.078;21.014;2023-10-19T00:08:03;163999.56;;;0.95;100.00
45255;BME280;30989;52.078;21.014;2023-10-19T00:10:53;163984.94;;;0.90;100.00
45255;BME280;30989;52.078;21.014;2023-10-19T00:13:38;163999.56;;;0.95;100.00
45255;BME280;30989;52.078;21.014;2023-10-19T00:16:07;163982.25;;;0.89;100.00
45255;BME280;30989;52.078;21.014;2023-10-19T00:18:54;163990.25;;;0.92;100.00
45255;BME280;30989;52.078;21.014;2023-10-19T00:21:24;163998.22;;;0.95;100.00
45255;BME280;30989;52.078;21.014;2023-10-19T00:23:53;164000.88;;;0.96;100.00
45255;BME280;30989;52.078;21.014;2023-10-19T00:26:22;163996.91;;;0.94;100.00
45255;BME280;30989;52.078;21.014;2023-10-19T00:28:54;164000.88;;;0.96;100.00
45255;BME280;30989;52.078;21.014;2023-10-19T00:31:27;164004.88;;;0.98;100.00
45255;BME280;30989;52.078;21.014;2023-10-19T00:33:53;164006.22;;;0.98;100.00
45255;BME280;30989;52.078;21.014;2023-10-19T00:36:20;164004.88;;;0.98;100.00
45255;BME280;30989;52.078;21.014;2023-10-19T00:38:46;163999.56;;;0.95;100.00
45255;BME280;30989;52.078;21.014;2023-10-19T00:41:21;164015.53;;;1.02;100.00
45255;BME280;30989;52.078;21.014;2023-10-19T00:43:49;164010.19;;;1.00;100.00
45255;BME280;30989;52.078;21.014;2023-10-19T00:46:18;164018.19;;;1.03;100.00
45255;BME280;30989;52.078;21.014;2023-10-19T00:48:45;163996.91;;;0.94;100.00
45255;BME280;30989;52.078;21.014;2023-10-19T00:51:14;164012.88;;;1.01;100.00
45255;BME280;30989;52.078;21.014;2023-10-19T00:53:57;164011.53;;;1.00;100.00
45255;BME280;30989;52.078;21.014;2023-10-19T00:56:25;164032.81;;;1.08;100.00
45255;BME280;30989;52.078;21.014;2023-10-19T00:58:56;164035.50;;;1.09;100.00
45255;BME280;30989;52.078;21.014;2023-10-19T01:01:28;164019.53;;;1.03;100.00
45255;BME280;30989;52.078;21.014;2023-10-19T01:03:54;163996.91;;;0.94;100.00
45255;BME280;30989;52.078;21.014;2023-10-19T01:06:24;164023.50;;;1.05;100.00
45255;BME280;30989;52.078;21.014;2023-10-19T01:08:52;164042.13;;;1.12;100.00
45255;BME280;30989;52.078;21.014;2023-10-19T01:11:19;164039.47;;;1.11;100.00
45255;BME280;30989;52.078;21.014;2023-10-19T01:13:47;164047.47;;;1.14;100.00
45255;BME280;30989;52.078;21.014;2023-10-19T01:16:16;164043.47;;;1.12;100.00
45255;BME280;30989;52.078;21.014;2023-10-19T01:18:50;164048.78;;;1.14;100.00
45255;BME280;30989;52.078;21.014;2023-10-19T01:21:22;164036.81;;;1.10;100.00
45255;BME280;30989;52.078;21.014;2023-10-19T01:23:51;164019.53;;;1.03;100.00
45255;BME280;30989;52.078;21.014;2023-10-19T01:26:17;164018.19;;;1.03;100.00
45255;BME280;30989;52.078;21.014;2023-10-19T01:28:52;164007.53;;;0.99;100.00
45255;BME280;30989;52.078;21.014;2023-10-19T01:31:24;163988.91;;;0.91;100.00
45255;BME280;30989;52.078;21.014;2023-10-19T01:33:59;163976.94;;;0.87;100.00
45255;BME280;30989;52.078;21.014;2023-10-19T01:36:26;163979.59;;;0.88;100.00
45255;BME280;30989;52.078;21.014;2023-10-19T01:38:54;163970.28;;;0.84;100.00
45255;BME280;30989;52.078;21.014;2023-10-19T01:41:21;163975.59;;;0.86;100.00
45255;BME280;30989;52.078;21.014;2023-10-19T01:43:49;163956.97;;;0.79;100.00
45255;BME280;30989;52.078;21.014;2023-10-19T01:46:16;163947.66;;;0.76;100.00
45255;BME280;30989;52.078;21.014;2023-10-19T01:49:02;163942.34;;;0.74;100.00
45255;BME280;30989;52.078;21.014;2023-10-19T01:51:30;163927.72;;;0.68;100.00
45255;BME280;30989;52.078;21.014;2023-10-19T01:53:58;163939.69;;;0.73;100.00
45255;BME280;30989;52.078;21.014;2023-10-19T01:56:26;163929.03;;;0.69;100.00
45255;BME280;30989;52.078;21.014;2023-10-19T01:58:53;163927.72;;;0.68;100.00
45255;BME280;30989;52.078;21.014;2023-10-19T02:01:23;163918.41;;;0.64;100.00
45255;BME280;30989;52.078;21.014;2023-10-19T02:03:51;163923.72;;;0.67;100.00
45255;BME280;30989;52.078;21.014;2023-10-19T02:06:19;163911.75;;;0.62;100.00
45255;BME280;30989;52.078;21.014;2023-10-19T02:08:58;163910.41;;;0.61;100.00
45255;BME280;30989;52.078;21.014;2023-10-19T02:11:34;163905.09;;;0.59;100.00
45255;BME280;30989;52.078;21.014;2023-10-19T02:14:03;163901.09;;;0.58;100.00
45255;BME280;30989;52.078;21.014;2023-10-19T02:16:38;163890.47;;;0.54;100.00
45255;BME280;30989;52.078;21.014;2023-10-19T02:19:03;163887.81;;;0.53;100.00
45255;BME280;30989;52.078;21.014;2023-10-19T02:21:29;163877.16;;;0.49;100.00
45255;BME280;30989;52.078;21.014;2023-10-19T02:23:56;163878.50;;;0.49;100.00
45255;BME280;30989;52.078;21.014;2023-10-19T02:26:23;163887.81;;;0.53;100.00
45255;BME280;30989;52.078;21.014;2023-10-19T02:28:51;163885.16;;;0.52;100.00
45255;BME280;30989;52.078;21.014;2023-10-19T02:31:17;163885.16;;;0.52;100.00
45255;BME280;30989;52.078;21.014;2023-10-19T02:33:53;163886.47;;;0.52;100.00
45255;BME280;30989;52.078;21.014;2023-10-19T02:36:28;163865.19;;;0.44;100.00
45255;BME280;30989;52.078;21.014;2023-10-19T02:38:55;163870.53;;;0.46;100.00
45255;BME280;30989;52.078;21.014;2023-10-19T02:41:24;163893.13;;;0.55;100.00
45255;BME280;30989;52.078;21.014;2023-10-19T02:43:50;163870.53;;;0.46;100.00
45255;BME280;30989;52.078;21.014;2023-10-19T02:46:41;163887.81;;;0.53;100.00
45255;BME280;30989;52.078;21.014;2023-10-19T02:49:09;163870.53;;;0.46;100.00
45255;BME280;30989;52.078;21.014;2023-10-19T02:51:43;163877.16;;;0.49;100.00
45255;BME280;30989;52.078;21.014;2023-10-19T02:54:16;163873.19;;;0.47;100.00
45255;BME280;30989;52.078;21.014;2023-10-19T02:56:53;163874.50;;;0.48;100.00
45255;BME280;30989;52.078;21.014;2023-10-19T02:59:21;163877.16;;;0.49;100.00
45255;BME280;30989;52.078;21.014;2023-10-19T03:01:52;163874.50;;;0.48;100.00
45255;BME280;30989;52.078;21.014;2023-10-19T03:04:20;163874.50;;;0.48;100.00
45255;BME280;30989;52.078;21.014;2023-10-19T03:06:45;163834.59;;;0.32;100.00
45255;BME280;30989;52.078;21.014;2023-10-19T03:09:11;163850.56;;;0.39;100.00
45255;BME280;30989;52.078;21.014;2023-10-19T03:11:49;163846.56;;;0.37;100.00
45255;BME280;30989;52.078;21.014;2023-10-19T03:14:19;163849.25;;;0.38;100.00
45255;BME280;30989;52.078;21.014;2023-10-19T03:16:45;163850.56;;;0.39;100.00
45255;BME280;30989;52.078;21.014;2023-10-19T03:19:11;163842.59;;;0.36;100.00
45255;BME280;30989;52.078;21.014;2023-10-19T03:21:39;163826.63;;;0.29;100.00
45255;BME280;30989;52.078;21.014;2023-10-19T03:24:14;163829.28;;;0.30;100.00
45255;BME280;30989;52.078;21.014;2023-10-19T03:27:08;163813.34;;;0.24;100.00
45255;BME280;30989;52.078;21.014;2023-10-19T03:29:51;163814.66;;;0.25;100.00
45255;BME280;30989;52.078;21.014;2023-10-19T03:32:23;163792.06;;;0.16;100.00
45255;BME280;30989;52.078;21.014;2023-10-19T03:34:54;163805.34;;;0.21;100.00
45255;BME280;30989;52.078;21.014;2023-10-19T03:37:23;163797.38;;;0.18;100.00
45255;BME280;30989;52.078;21.014;2023-10-19T03:39:51;163794.72;;;0.17;100.00
45255;BME280;30989;52.078;21.014;2023-10-19T03:42:17;163792.06;;;0.16;100.00
45255;BME280;30989;52.078;21.014;2023-10-19T03:44:43;163792.06;;;0.16;100.00
45255;BME280;30989;52.078;21.014;2023-10-19T03:47:11;163788.06;;;0.15;100.00
45255;BME280;30989;52.078;21.014;2023-10-19T03:49:44;163772.09;;;0.09;100.00
45255;BME280;30989;52.078;21.014;2023-10-19T03:52:09;163773.44;;;0.09;100.00
45255;BME280;30989;52.078;21.014;2023-10-19T03:54:35;163776.09;;;0.10;100.00
45255;BME280;30989;52.078;21.014;2023-10-19T03:57:07;163797.38;;;0.18;100.00
45255;BME280;30989;52.078;21.014;2023-10-19T03:59:46;163786.72;;;0.14;100.00
45255;BME280;30989;52.078;21.014;2023-10-19T04:02:12;163788.06;;;0.15;100.00
45255;BME280;30989;52.078;21.014;2023-10-19T04:04:47;163792.06;;;0.16;100.00
45255;BME280;30989;52.078;21.014;2023-10-19T04:07:16;163802.69;;;0.20;100.00
45255;BME280;30989;52.078;21.014;2023-10-19T04:09:50;163800.03;;;0.19;100.00
45255;BME280;30989;52.078;21.014;2023-10-19T04:12:35;163792.06;;;0.16;100.00
45255;BME280;30989;52.078;21.014;2023-10-19T04:15:03;163813.34;;;0.24;100.00
45255;BME280;30989;52.078;21.014;2023-10-19T04:17:41;163808.00;;;0.22;100.00
45255;BME280;30989;52.078;21.014;2023-10-19T04:20:16;163818.66;;;0.26;100.00
45255;BME280;30989;52.078;21.014;2023-10-19T04:22:42;163796.03;;;0.18;100.00
45255;BME280;30989;52.078;21.014;2023-10-19T04:25:08;163821.31;;;0.27;100.00
45255;BME280;30989;52.078;21.014;2023-10-19T04:27:37;163822.63;;;0.28;100.00
45255;BME280;30989;52.078;21.014;2023-10-19T04:30:03;163818.66;;;0.26;100.00
45255;BME280;30989;52.078;21.014;2023-10-19T04:32:28;163829.28;;;0.30;100.00
45255;BME280;30989;52.078;21.014;2023-10-19T04:34:54;163814.66;;;0.25;100.00
45255;BME280;30989;52.078;21.014;2023-10-19T04:37:19;163818.66;;;0.26;100.00
45255;BME280;30989;52.078;21.014;2023-10-19T04:39:47;163801.34;;;0.20;100.00
45255;BME280;30989;52.078;21.014;2023-10-19T04:42:15;163806.69;;;0.22;100.00
45255;BME280;30989;52.078;21.014;2023-10-19T04:44:40;163781.41;;;0.12;100.00
45255;BME280;30989;52.078;21.014;2023-10-19T04:47:06;163770.78;;;0.08;100.00
45255;BME280;30989;52.078;21.014;2023-10-19T04:49:31;163748.13;;;-0.01;100.00
45255;BME280;30989;52.078;21.014;2023-10-19T04:51:57;163728.16;;;-0.08;100.00
45255;BME280;30989;52.078;21.014;2023-10-19T04:54:22;163733.50;;;-0.06;100.00
45255;BME280;30989;52.078;21.014;2023-10-19T04:56:48;163733.50;;;-0.06;100.00
45255;BME280;30989;52.078;21.014;2023-10-19T04:59:13;163725.53;;;-0.09;100.00
45255;BME280;30989;52.078;21.014;2023-10-19T05:01:39;163733.50;;;-0.06;100.00
45255;BME280;30989;52.078;21.014;2023-10-19T05:04:06;163733.50;;;-0.06;100.00
45255;BME280;30989;52.078;21.014;2023-10-19T05:06:31;163732.16;;;-0.07;100.00
45255;BME280;30989;52.078;21.014;2023-10-19T05:08:57;163730.84;;;-0.07;100.00
45255;BME280;30989;52.078;21.014;2023-10-19T05:11:22;163740.13;;;-0.04;100.00
45255;BME280;30989;52.078;21.014;2023-10-19T05:13:48;163745.47;;;-0.02;100.00
45255;BME280;30989;52.078;21.014;2023-10-19T05:16:13;163740.13;;;-0.04;100.00
45255;BME280;30989;52.078;21.014;2023-10-19T05:18:39;163733.50;;;-0.06;100.00
45255;BME280;30989;52.078;21.014;2023-10-19T05:21:04;163737.47;;;-0.05;100.00
45255;BME280;30989;52.078;21.014;2023-10-19T05:23:30;163770.78;;;0.08;100.00
45255;BME280;30989;52.078;21.014;2023-10-19T05:26:00;163780.09;;;0.12;100.00
45255;BME280;30989;52.078;21.014;2023-10-19T05:28:27;163786.72;;;0.14;100.00
45255;BME280;30989;52.078;21.014;2023-10-19T05:30:53;163786.72;;;0.14;100.00
45255;BME280;30989;52.078;21.014;2023-10-19T05:33:19;163809.34;;;0.23;100.00
45255;BME280;30989;52.078;21.014;2023-10-19T05:35:49;163805.34;;;0.21;100.00
45255;BME280;30989;52.078;21.014;2023-10-19T05:38:18;163815.97;;;0.25;100.00
45255;BME280;30989;52.078;21.014;2023-10-19T05:40:45;163853.22;;;0.40;100.00
45255;BME280;30989;52.078;21.014;2023-10-19T05:43:11;163875.84;;;0.48;100.00
45255;BME280;30989;52.078;21.014;2023-10-19T05:45:38;163881.16;;;0.50;100.00
45255;BME280;30989;52.078;21.014;2023-10-19T05:48:04;163870.53;;;0.46;100.00
45255;BME280;30989;52.078;21.014;2023-10-19T05:50:33;163895.78;;;0.56;100.00
45255;BME280;30989;52.078;21.014;2023-10-19T05:52:58;163917.06;;;0.64;100.00
45255;BME280;30989;52.078;21.014;2023-10-19T05:55:25;163927.72;;;0.68;100.00
45255;BME280;30989;52.078;21.014;2023-10-19T05:57:51;163938.34;;;0.72;100.00
45255;BME280;30989;52.078;21.014;2023-10-19T06:00:16;163956.97;;;0.79;100.00
45255;BME280;30989;52.078;21.014;2023-10-19T06:02:44;163959.66;;;0.80;100.00
45255;BME280;30989;52.078;21.014;2023-10-19T06:05:10;163963.63;;;0.82;100.00
45255;BME280;30989;52.078;21.014;2023-10-19T06:07:36;163972.94;;;0.85;100.00
45255;BME280;30989;52.078;21.014;2023-10-19T06:10:03;163999.56;;;0.95;100.00
45255;BME280;30989;52.078;21.014;2023-10-19T06:12:32;163998.22;;;0.95;100.00
45255;BME280;30989;52.078;21.014;2023-10-19T06:14:58;164011.53;;;1.00;100.00
45255;BME280;30989;52.078;21.014;2023-10-19T06:17:24;164023.50;;;1.05;100.00
45255;BME280;30989;52.078;21.014;2023-10-19T06:19:49;164058.09;;;1.18;100.00
45255;BME280;30989;52.078;21.014;2023-10-19T06:22:15;164059.44;;;1.18;100.00
45255;BME280;30989;52.078;21.014;2023-10-19T06:24:42;164047.47;;;1.14;100.00
45255;BME280;30989;52.078;21.014;2023-10-19T06:27:09;164090.03;;;1.30;100.00
45255;BME280;30989;52.078;21.014;2023-10-19T06:29:35;164115.34;;;1.40;100.00
45255;BME280;30989;52.078;21.014;2023-10-19T06:32:00;164124.66;;;1.43;100.00
45255;BME280;30989;52.078;21.014;2023-10-19T06:34:26;164160.59;;;1.57;100.00
45255;BME280;30989;52.078;21.014;2023-10-19T06:36:52;164173.91;;;1.62;100.00
45255;BME280;30989;52.078;21.014;2023-10-19T06:39:19;164172.56;;;1.61;100.00
45255;BME280;30989;52.078;21.014;2023-10-19T06:41:46;164213.84;;;1.77;100.00
45255;BME280;30989;52.078;21.014;2023-10-19T06:44:12;164215.19;;;1.78;100.00
45255;BME280;30989;52.078;21.014;2023-10-19T06:46:38;164225.81;;;1.82;100.00
45255;BME280;30989;52.078;21.014;2023-10-19T06:49:04;164237.81;;;1.86;100.00
45255;BME280;30989;52.078;21.014;2023-10-19T06:51:30;164253.78;;;1.92;100.00
45255;BME280;30989;52.078;21.014;2023-10-19T06:53:55;164263.09;;;1.96;100.00
45255;BME280;30989;52.078;21.014;2023-10-19T06:56:21;164259.13;;;1.94;100.00
45255;BME280;30989;52.078;21.014;2023-10-19T06:58:47;164301.72;;;2.11;100.00
45255;BME280;30989;52.078;21.014;2023-10-19T07:01:13;164332.34;;;2.22;100.00
45255;BME280;30989;52.078;21.014;2023-10-19T07:03:42;164327.03;;;2.20;100.00
45255;BME280;30989;52.078;21.014;2023-10-19T07:06:07;164348.34;;;2.29;100.00
45255;BME280;30989;52.078;21.014;2023-10-19T07:08:33;164370.97;;;2.37;100.00
45255;BME280;30989;52.078;21.014;2023-10-19T07:10:58;164413.59;;;2.53;100.00
45255;BME280;30989;52.078;21.014;2023-10-19T07:13:25;164438.91;;;2.63;100.00
45255;BME280;30989;52.078;21.014;2023-10-19T07:15:51;164446.91;;;2.66;100.00
45255;BME280;30989;52.078;21.014;2023-10-19T07:18:16;164470.88;;;2.75;100.00
45255;BME280;30989;52.078;21.014;2023-10-19T07:20:42;164494.88;;;2.84;100.00
45255;BME280;30989;52.078;21.014;2023-10-19T07:23:08;164544.16;;;3.03;100.00
45255;BME280;30989;52.078;21.014;2023-10-19T07:25:52;164574.81;;;3.15;100.00
45255;BME280;30989;52.078;21.014;2023-10-19T07:28:25;164617.47;;;3.31;100.00
45255;BME280;30989;52.078;21.014;2023-10-19T07:30:52;164658.78;;;3.47;100.00
45255;BME280;30989;52.078;21.014;2023-10-19T07:33:18;164698.78;;;3.62;100.00
45255;BME280;30989;52.078;21.014;2023-10-19T07:35:46;164718.78;;;3.70;100.00
45255;BME280;30989;52.078;21.014;2023-10-19T07:38:16;164766.78;;;3.88;100.00
45255;BME280;30989;52.078;21.014;2023-10-19T07:40:42;164818.78;;;4.08;100.00
45255;BME280;30989;52.078;21.014;2023-10-19T07:43:09;164878.78;;;4.31;100.00
45255;BME280;30989;52.078;21.014;2023-10-19T07:45:35;164937.47;;;4.53;100.00
45255;BME280;30989;52.078;21.014;2023-10-19T07:48:02;164980.19;;;4.69;100.00
45255;BME280;30989;52.078;21.014;2023-10-19T07:50:37;165041.53;;;4.93;100.00
45255;BME280;30989;52.078;21.014;2023-10-19T07:53:03;165070.91;;;5.04;100.00
45255;BME280;30989;52.078;21.014;2023-10-19T07:55:29;165115.00;;;5.21;100.00
45255;BME280;30989;52.078;21.014;2023-10-19T07:57:57;165136.34;;;5.29;100.00
45255;BME280;30989;52.078;21.014;2023-10-19T08:00:25;165153.69;;;5.35;100.00
45255;BME280;30989;52.078;21.014;2023-10-19T08:02:54;165179.06;;;5.45;100.00
45255;BME280;30989;52.078;21.014;2023-10-19T08:05:20;165193.75;;;5.50;100.00
45255;BME280;30989;52.078;21.014;2023-10-19T08:07:46;165237.78;;;5.67;100.00
45255;BME280;30989;52.078;21.014;2023-10-19T08:10:15;165279.19;;;5.83;100.00
45255;BME280;30989;52.078;21.014;2023-10-19T08:12:42;165293.88;;;5.89;100.00
45255;BME280;30989;52.078;21.014;2023-10-19T08:15:11;165305.94;;;5.93;100.00
45255;BME280;30989;52.078;21.014;2023-10-19T08:17:41;165300.59;;;5.91;100.00
45255;BME280;30989;52.078;21.014;2023-10-19T08:20:08;165284.53;;;5.85;100.00
45255;BME280;30989;52.078;21.014;2023-10-19T08:22:44;165241.81;;;5.69;100.00
45255;BME280;30989;52.078;21.014;2023-10-19T08:25:13;165244.47;;;5.70;100.00
45255;BME280;30989;52.078;21.014;2023-10-19T08:27:44;165273.84;;;5.81;100.00
45255;BME280;30989;52.078;21.014;2023-10-19T08:30:11;165247.13;;;5.71;100.00
45255;BME280;30989;52.078;21.014;2023-10-19T08:32:39;165247.13;;;5.71;100.00
45255;BME280;30989;52.078;21.014;2023-10-19T08:35:05;165241.81;;;5.69;100.00
45255;BME280;30989;52.078;21.014;2023-10-19T08:37:31;165244.47;;;5.70;100.00
45255;BME280;30989;52.078;21.014;2023-10-19T08:39:57;165280.53;;;5.83;100.00
45255;BME280;30989;52.078;21.014;2023-10-19T08:42:23;165289.88;;;5.87;100.00
45255;BME280;30989;52.078;21.014;2023-10-19T08:44:49;165289.88;;;5.87;100.00
45255;BME280;30989;52.078;21.014;2023-10-19T08:47:14;165313.94;;;5.96;100.00
45255;BME280;30989;52.078;21.014;2023-10-19T08:49:41;165340.66;;;6.06;100.00
45255;BME280;30989;52.078;21.014;2023-10-19T08:52:07;165399.41;;;6.29;100.00
45255;BME280;30989;52.078;21.014;2023-10-19T08:54:33;165422.13;;;6.37;100.00
45255;BME280;30989;52.078;21.014;2023-10-19T08:56:59;165487.56;;;6.62;100.00
45255;BME280;30989;52.078;21.014;2023-10-19T08:59:25;165534.34;;;6.80;100.00
45255;BME280;30989;52.078;21.014;2023-10-19T09:02:00;165557.03;;;6.89;100.00
45255;BME280;30989;52.078;21.014;2023-10-19T09:04:25;165591.78;;;7.02;100.00
45255;BME280;30989;52.078;21.014;2023-10-19T09:06:53;165647.91;;;7.23;100.00
45255;BME280;30989;52.078;21.014;2023-10-19T09:09:20;165696.03;;;7.41;100.00
45255;BME280;30989;52.078;21.014;2023-10-19T09:11:47;165706.72;;;7.46;100.00
45255;BME280;30989;52.078;21.014;2023-10-19T09:14:14;165726.78;;;7.53;100.00
45255;BME280;30989;52.078;21.014;2023-10-19T09:16:56;165762.88;;;7.67;100.00
45255;BME280;30989;52.078;21.014;2023-10-19T09:19:41;165780.25;;;7.73;100.00
45255;BME280;30989;52.078;21.014;2023-10-19T09:22:07;165786.94;;;7.76;100.00
45255;BME280;30989;52.078;21.014;2023-10-19T09:24:42;165792.28;;;7.78;100.00
45255;BME280;30989;52.078;21.014;2023-10-19T09:27:08;165806.97;;;7.84;100.00
45255;BME280;30989;52.078;21.014;2023-10-19T09:29:33;165817.66;;;7.88;100.00
45255;BME280;30989;52.078;21.014;2023-10-19T09:31:59;165877.84;;;8.11;100.00
45255;BME280;30989;52.078;21.014;2023-10-19T09:34:29;165934.00;;;8.32;100.00
45255;BME280;30989;52.078;21.014;2023-10-19T09:37:03;165968.84;;;8.45;100.00
45255;BME280;30989;52.078;21.014;2023-10-19T09:39:32;166008.97;;;8.60;100.00
45255;BME280;30989;52.078;21.014;2023-10-19T09:42:08;166029.03;;;8.68;100.00
45255;BME280;30989;52.078;21.014;2023-10-19T09:44:43;166027.69;;;8.67;100.00
45255;BME280;30989;52.078;21.014;2023-10-19T09:47:53;166030.38;;;8.68;100.00
45255;BME280;30989;52.078;21.014;2023-10-19T09:50:00;166030.38;;;8.68;100.00
45255;BME280;30989;52.078;21.014;2023-10-19T09:52:26;166010.31;;;8.61;100.00
45255;BME280;30989;52.078;21.014;2023-10-19T09:57:48;166094.59;;;8.93;100.00
45255;BME280;30989;52.078;21.014;2023-10-19T10:00:17;166180.22;;;9.25;100.00
45255;BME280;30989;52.078;21.014;2023-10-19T10:02:49;166233.75;;;9.46;100.00
45255;BME280;30989;52.078;21.014;2023-10-19T10:05:53;166300.66;;;9.71;100.00
45255;BME280;30989;52.078;21.014;2023-10-19T10:15:52;166346.19;;;9.88;100.00
45255;BME280;30989;52.078;21.014;2023-10-19T10:18:18;166335.47;;;9.84;95.62
45255;BME280;30989;52.078;21.014;2023-10-19T10:20:44;166289.97;;;9.67;95.61
45255;BME280;30989;52.078;21.014;2023-10-19T10:23:23;166271.22;;;9.60;96.10
45255;BME280;30989;52.078;21.014;2023-10-19T10:25:57;166249.81;;;9.52;96.46
45255;BME280;30989;52.078;21.014;2023-10-19T10:28:24;166271.22;;;9.60;97.54
45255;BME280;30989;52.078;21.014;2023-10-19T10:33:50;166312.72;;;9.76;94.50
45255;BME280;30989;52.078;21.014;2023-10-19T10:36:20;166316.72;;;9.77;94.21
45255;BME280;30989;52.078;21.014;2023-10-19T10:38:48;166324.78;;;9.80;92.40
45255;BME280;30989;52.078;21.014;2023-10-19T10:41:24;166311.38;;;9.75;94.13
45255;BME280;30989;52.078;21.014;2023-10-19T10:43:58;166358.22;;;9.93;95.65
45255;BME280;30989;52.078;21.014;2023-10-19T10:46:25;166417.16;;;10.15;96.70
45255;BME280;30989;52.078;21.014;2023-10-19T10:48:52;166481.47;;;10.40;95.34
45255;BME280;30989;52.078;21.014;2023-10-19T10:51:26;166493.56;;;10.44;91.45
45255;BME280;30989;52.078;21.014;2023-10-19T10:53:57;166438.63;;;10.23;87.03
45255;BME280;30989;52.078;21.014;2023-10-19T10:56:24;166399.75;;;10.09;87.41
45255;BME280;30989;52.078;21.014;2023-10-19T10:58:50;166367.59;;;9.96;90.37
45255;BME280;30989;52.078;21.014;2023-10-19T11:01:27;166343.50;;;9.87;90.61
45255;BME280;30989;52.078;21.014;2023-10-19T11:04:08;166331.47;;;9.83;91.93
45255;BME280;30989;52.078;21.014;2023-10-19T11:06:46;166356.91;;;9.92;92.49
45255;BME280;30989;52.078;21.014;2023-10-19T11:09:12;166366.28;;;9.96;92.33
45255;BME280;30989;52.078;21.014;2023-10-19T11:11:37;166390.38;;;10.05;89.71
45255;BME280;30989;52.078;21.014;2023-10-19T11:14:11;166368.94;;;9.97;91.65
45255;BME280;30989;52.078;21.014;2023-10-19T11:16:36;166394.38;;;10.07;90.42
45255;BME280;30989;52.078;21.014;2023-10-19T11:19:04;166375.63;;;9.99;89.56
45255;BME280;30989;52.078;21.014;2023-10-19T11:21:29;166370.28;;;9.97;90.08
45255;BME280;30989;52.078;21.014;2023-10-19T11:23:55;166389.03;;;10.05;90.43
45255;BME280;30989;52.078;21.014;2023-10-19T11:26:23;166397.06;;;10.08;89.30
45255;BME280;30989;52.078;21.014;2023-10-19T11:29:02;166402.41;;;10.10;90.41
45255;BME280;30989;52.078;21.014;2023-10-19T11:31:29;166449.34;;;10.27;90.42
45255;BME280;30989;52.078;21.014;2023-10-19T11:34:03;166464.06;;;10.33;90.29
45255;BME280;30989;52.078;21.014;2023-10-19T11:36:29;166474.78;;;10.37;89.71
45255;BME280;30989;52.078;21.014;2023-10-19T11:38:54;166458.72;;;10.31;89.50
45255;BME280;30989;52.078;21.014;2023-10-19T11:41:20;166464.06;;;10.33;89.71
45255;BME280;30989;52.078;21.014;2023-10-19T11:43:47;166446.66;;;10.26;88.91
45255;BME280;30989;52.078;21.014;2023-10-19T11:46:13;166399.75;;;10.09;89.37
45255;BME280;30989;52.078;21.014;2023-10-19T11:48:40;166376.97;;;10.00;89.22
45255;BME280;30989;52.078;21.014;2023-10-19T11:51:07;166356.91;;;9.92;90.11
45255;BME280;30989;52.078;21.014;2023-10-19T11:53:35;166332.81;;;9.83;89.94
45255;BME280;30989;52.078;21.014;2023-10-19T11:56:03;166314.06;;;9.76;87.54
45255;BME280;30989;52.078;21.014;2023-10-19T11:58:32;166261.84;;;9.56;87.05
45255;BME280;30989;52.078;21.014;2023-10-19T12:01:00;166223.03;;;9.42;89.40
45255;BME280;30989;52.078;21.014;2023-10-19T12:03:25;166192.25;;;9.30;89.18
45255;BME280;30989;52.078;21.014;2023-10-19T12:05:51;166158.81;;;9.17;89.66
45255;BME280;30989;52.078;21.014;2023-10-19T12:08:21;166148.09;;;9.13;90.44
45255;BME280;30989;52.078;21.014;2023-10-19T12:10:47;166140.06;;;9.10;91.02
45255;BME280;30989;52.078;21.014;2023-10-19T12:13:13;166128.03;;;9.05;91.59
45255;BME280;30989;52.078;21.014;2023-10-19T12:15:38;166134.72;;;9.08;92.38
45255;BME280;30989;52.078;21.014;2023-10-19T12:18:04;166124.00;;;9.04;92.49
45255;BME280;30989;52.078;21.014;2023-10-19T12:20:30;166141.41;;;9.11;92.62
45255;BME280;30989;52.078;21.014;2023-10-19T12:22:59;166132.03;;;9.07;92.95
45255;BME280;30989;52.078;21.014;2023-10-19T12:25:26;166153.47;;;9.15;93.15
45255;BME280;30989;52.078;21.014;2023-10-19T12:27:55;166160.16;;;9.18;92.50
45255;BME280;30989;52.078;21.014;2023-10-19T12:30:21;166174.88;;;9.23;92.07
45255;BME280;30989;52.078;21.014;2023-10-19T12:32:50;166168.16;;;9.21;92.40
45255;BME280;30989;52.078;21.014;2023-10-19T12:35:16;166166.84;;;9.20;92.31
45255;BME280;30989;52.078;21.014;2023-10-19T12:37:45;166161.47;;;9.18;92.23
45255;BME280;30989;52.078;21.014;2023-10-19T12:40:17;166160.16;;;9.18;92.82
45255;BME280;30989;52.078;21.014;2023-10-19T12:42:55;166162.81;;;9.19;92.83
45255;BME280;30989;52.078;21.014;2023-10-19T12:45:24;166150.78;;;9.14;93.01
45255;BME280;30989;52.078;21.014;2023-10-19T12:47:51;166154.78;;;9.16;93.19
45255;BME280;30989;52.078;21.014;2023-10-19T12:50:20;166146.75;;;9.13;93.47
45255;BME280;30989;52.078;21.014;2023-10-19T12:52:51;166125.34;;;9.04;93.64
45255;BME280;30989;52.078;21.014;2023-10-19T12:55:18;166110.63;;;8.99;93.72
45255;BME280;30989;52.078;21.014;2023-10-19T12:57:43;166120.00;;;9.02;94.24
45255;BME280;30989;52.078;21.014;2023-10-19T13:00:09;166110.63;;;8.99;94.29
45255;BME280;30989;52.078;21.014;2023-10-19T13:02:53;166091.91;;;8.92;92.84